sensor_id;sensor_type;location;lat;lon;timestamp;temperature;humidity
33011;DHT22;19370;48.562;9.196;2022-10-31T00:01:31;12.50;99.90
33011;DHT22;19370;48.562;9.196;2022-10-31T00:03:57;12.50;99.90
33011;DHT22;19370;48.562;9.196;2022-10-31T00:06:23;12.40;99.90
33011;DHT22;19370;48.562;9.196;2022-10-31T00:08:57;12.50;99.90
33011;DHT22;19370;48.562;9.196;2022-10-31T00:11:23;12.50;99.90
33011;DHT22;19370;48.562;9.196;2022-10-31T00:13:49;12.50;99.90
33011;DHT22;19370;48.562;9.196;2022-10-31T00:16:16;12.70;99.90
33011;DHT22;19370;48.562;9.196;2022-10-31T00:18:42;12.60;99.90
33011;DHT22;19370;48.562;9.196;2022-10-31T00:21:08;12.60;99.90
33011;DHT22;19370;48.562;9.196;2022-10-31T00:23:34;12.60;99.90
33011;DHT22;19370;48.562;9.196;2022-10-31T00:26:01;12.70;99.90
33011;DHT22;19370;48.562;9.196;2022-10-31T00:28:27;12.70;99.90
33011;DHT22;19370;48.562;9.196;2022-10-31T00:30:53;12.70;99.90
33011;DHT22;19370;48.562;9.196;2022-10-31T00:33:19;12.60;99.90
33011;DHT22;19370;48.562;9.196;2022-10-31T00:35:53;12.70;99.90
33011;DHT22;19370;48.562;9.196;2022-10-31T00:38:22;12.70;99.90
33011;DHT22;19370;48.562;9.196;2022-10-31T00:40:48;12.60;99.90
33011;DHT22;19370;48.562;9.196;2022-10-31T00:43:14;12.60;99.90
33011;DHT22;19370;48.562;9.196;2022-10-31T00:45:40;12.60;99.90
33011;DHT22;19370;48.562;9.196;2022-10-31T00:48:06;12.70;99.90
33011;DHT22;19370;48.562;9.196;2022-10-31T00:50:32;12.60;99.90
33011;DHT22;19370;48.562;9.196;2022-10-31T00:52:58;12.60;99.90
33011;DHT22;19370;48.562;9.196;2022-10-31T00:55:24;12.60;99.90
33011;DHT22;19370;48.562;9.196;2022-10-31T00:57:50;12.70;99.90
33011;DHT22;19370;48.562;9.196;2022-10-31T01:00:16;12.50;99.90
33011;DHT22;19370;48.562;9.196;2022-10-31T01:02:42;12.40;99.90
33011;DHT22;19370;48.562;9.196;2022-10-31T01:05:07;12.30;99.90
33011;DHT22;19370;48.562;9.196;2022-10-31T01:07:37;12.20;99.90
33011;DHT22;19370;48.562;9.196;2022-10-31T01:10:04;12.20;99.90
33011;DHT22;19370;48.562;9.196;2022-10-31T01:12:39;12.10;99.90
33011;DHT22;19370;48.562;9.196;2022-10-31T01:15:06;12.10;99.90
33011;DHT22;19370;48.562;9.196;2022-10-31T01:17:32;12.10;99.90
33011;DHT22;19370;48.562;9.196;2022-10-31T01:19:58;12.10;99.90
33011;DHT22;19370;48.562;9.196;2022-10-31T01:22:24;12.00;99.90
33011;DHT22;19370;48.562;9.196;2022-10-31T01:24:50;12.10;99.90
33011;DHT22;19370;48.562;9.196;2022-10-31T01:27:16;12.00;99.90
33011;DHT22;19370;48.562;9.196;2022-10-31T01:29:42;12.10;99.90
33011;DHT22;19370;48.562;9.196;2022-10-31T01:32:08;12.00;99.90
33011;DHT22;19370;48.562;9.196;2022-10-31T01:34:34;12.00;99.90
33011;DHT22;19370;48.562;9.196;2022-10-31T01:36:59;12.00;99.90
33011;DHT22;19370;48.562;9.196;2022-10-31T01:39:25;12.00;99.90
33011;DHT22;19370;48.562;9.196;2022-10-31T01:41:53;12.00;99.90
33011;DHT22;19370;48.562;9.196;2022-10-31T01:46:54;11.90;99.90
33011;DHT22;19370;48.562;9.196;2022-10-31T01:49:23;11.80;99.90
33011;DHT22;19370;48.562;9.196;2022-10-31T01:52:00;11.80;99.90
33011;DHT22;19370;48.562;9.196;2022-10-31T01:54:35;11.70;99.90
33011;DHT22;19370;48.562;9.196;2022-10-31T01:57:04;11.60;99.90
33011;DHT22;19370;48.562;9.196;2022-10-31T01:59:35;11.60;99.90
33011;DHT22;19370;48.562;9.196;2022-10-31T02:02:02;11.50;99.90
33011;DHT22;19370;48.562;9.196;2022-10-31T02:04:27;11.50;99.90
33011;DHT22;19370;48.562;9.196;2022-10-31T02:07:10;11.40;99.90
33011;DHT22;19370;48.562;9.196;2022-10-31T02:09:36;11.50;99.90
33011;DHT22;19370;48.562;9.196;2022-10-31T02:12:03;11.30;99.90
33011;DHT22;19370;48.562;9.196;2022-10-31T02:14:39;11.30;99.90
33011;DHT22;19370;48.562;9.196;2022-10-31T02:17:33;11.40;99.90
33011;DHT22;19370;48.562;9.196;2022-10-31T02:20:19;11.30;99.90
33011;DHT22;19370;48.562;9.196;2022-10-31T02:31:40;11.10;99.90
33011;DHT22;19370;48.562;9.196;2022-10-31T02:40:48;10.90;99.90
33011;DHT22;19370;48.562;9.196;2022-10-31T02:43:26;10.90;99.90
33011;DHT22;19370;48.562;9.196;2022-10-31T02:46:02;10.80;99.90
33011;DHT22;19370;48.562;9.196;2022-10-31T02:48:33;10.90;99.90
33011;DHT22;19370;48.562;9.196;2022-10-31T02:51:03;10.70;99.90
33011;DHT22;19370;48.562;9.196;2022-10-31T02:53:36;10.70;99.90
33011;DHT22;19370;48.562;9.196;2022-10-31T02:56:08;10.60;99.90
33011;DHT22;19370;48.562;9.196;2022-10-31T02:58:40;10.50;99.90
33011;DHT22;19370;48.562;9.196;2022-10-31T03:01:22;10.50;99.90
33011;DHT22;19370;48.562;9.196;2022-10-31T03:07:00;10.40;99.90
33011;DHT22;19370;48.562;9.196;2022-10-31T03:12:11;10.40;99.90
33011;DHT22;19370;48.562;9.196;2022-10-31T03:17:25;10.40;99.90
33011;DHT22;19370;48.562;9.196;2022-10-31T03:19:54;10.40;99.90
33011;DHT22;19370;48.562;9.196;2022-10-31T03:22:26;10.40;99.90
33011;DHT22;19370;48.562;9.196;2022-10-31T03:24:52;10.50;99.90
33011;DHT22;19370;48.562;9.196;2022-10-31T03:27:28;10.40;99.90
33011;DHT22;19370;48.562;9.196;2022-10-31T03:29:57;10.50;99.90
33011;DHT22;19370;48.562;9.196;2022-10-31T03:32:29;10.50;99.90
33011;DHT22;19370;48.562;9.196;2022-10-31T03:34:59;10.30;99.90
33011;DHT22;19370;48.562;9.196;2022-10-31T03:37:28;10.40;99.90
33011;DHT22;19370;48.562;9.196;2022-10-31T03:39:55;10.30;99.90
33011;DHT22;19370;48.562;9.196;2022-10-31T03:42:25;10.40;99.90
33011;DHT22;19370;48.562;9.196;2022-10-31T03:45:13;10.30;99.90
33011;DHT22;19370;48.562;9.196;2022-10-31T03:47:40;10.20;99.90
33011;DHT22;19370;48.562;9.196;2022-10-31T03:50:09;10.00;99.90
33011;DHT22;19370;48.562;9.196;2022-10-31T03:52:46;10.00;99.90
33011;DHT22;19370;48.562;9.196;2022-10-31T03:55:18;10.10;99.90
33011;DHT22;19370;48.562;9.196;2022-10-31T03:58:08;10.00;99.90
33011;DHT22;19370;48.562;9.196;2022-10-31T04:00:38;10.20;99.90
33011;DHT22;19370;48.562;9.196;2022-10-31T04:03:07;10.20;99.90
33011;DHT22;19370;48.562;9.196;2022-10-31T04:05:35;10.20;99.90
33011;DHT22;19370;48.562;9.196;2022-10-31T04:08:05;10.30;99.90
33011;DHT22;19370;48.562;9.196;2022-10-31T04:10:34;10.20;99.90
33011;DHT22;19370;48.562;9.196;2022-10-31T04:13:09;10.20;99.90
33011;DHT22;19370;48.562;9.196;2022-10-31T04:15:38;10.30;99.90
33011;DHT22;19370;48.562;9.196;2022-10-31T04:18:05;10.30;99.90
33011;DHT22;19370;48.562;9.196;2022-10-31T04:20:33;10.40;99.90
33011;DHT22;19370;48.562;9.196;2022-10-31T04:23:00;10.40;99.90
33011;DHT22;19370;48.562;9.196;2022-10-31T04:25:26;10.40;99.90
33011;DHT22;19370;48.562;9.196;2022-10-31T04:27:52;10.40;99.90
33011;DHT22;19370;48.562;9.196;2022-10-31T04:30:17;10.40;99.90
33011;DHT22;19370;48.562;9.196;2022-10-31T04:32:43;10.40;99.90
33011;DHT22;19370;48.562;9.196;2022-10-31T04:35:09;10.40;99.90
33011;DHT22;19370;48.562;9.196;2022-10-31T04:37:34;10.30;99.90
33011;DHT22;19370;48.562;9.196;2022-10-31T04:40:00;10.30;99.90
33011;DHT22;19370;48.562;9.196;2022-10-31T04:42:29;10.30;99.90
33011;DHT22;19370;48.562;9.196;2022-10-31T04:44:55;10.20;99.90
33011;DHT22;19370;48.562;9.196;2022-10-31T04:47:21;10.10;99.90
33011;DHT22;19370;48.562;9.196;2022-10-31T04:49:47;10.00;99.90
33011;DHT22;19370;48.562;9.196;2022-10-31T04:52:13;10.10;99.90
33011;DHT22;19370;48.562;9.196;2022-10-31T04:54:39;10.10;99.90
33011;DHT22;19370;48.562;9.196;2022-10-31T04:57:05;9.90;99.90
33011;DHT22;19370;48.562;9.196;2022-10-31T04:59:34;9.90;99.90
33011;DHT22;19370;48.562;9.196;2022-10-31T05:02:00;9.90;99.90
33011;DHT22;19370;48.562;9.196;2022-10-31T05:04:25;9.90;99.90
33011;DHT22;19370;48.562;9.196;2022-10-31T05:06:51;9.80;99.90
33011;DHT22;19370;48.562;9.196;2022-10-31T05:09:17;9.80;99.90
33011;DHT22;19370;48.562;9.196;2022-10-31T05:11:43;10.00;99.90
33011;DHT22;19370;48.562;9.196;2022-10-31T05:14:08;9.80;99.90
33011;DHT22;19370;48.562;9.196;2022-10-31T05:16:34;9.80;99.90
33011;DHT22;19370;48.562;9.196;2022-10-31T05:19:00;9.80;99.90
33011;DHT22;19370;48.562;9.196;2022-10-31T05:21:25;9.80;99.90
33011;DHT22;19370;48.562;9.196;2022-10-31T05:23:51;9.80;99.90
33011;DHT22;19370;48.562;9.196;2022-10-31T05:26:18;9.90;99.90
33011;DHT22;19370;48.562;9.196;2022-10-31T05:28:43;9.80;99.90
33011;DHT22;19370;48.562;9.196;2022-10-31T05:31:09;9.70;99.90
33011;DHT22;19370;48.562;9.196;2022-10-31T05:33:35;9.80;99.90
33011;DHT22;19370;48.562;9.196;2022-10-31T05:36:00;9.70;99.90
33011;DHT22;19370;48.562;9.196;2022-10-31T05:38:27;9.70;99.90
33011;DHT22;19370;48.562;9.196;2022-10-31T05:40:55;9.80;99.90
33011;DHT22;19370;48.562;9.196;2022-10-31T05:43:26;9.70;99.90
33011;DHT22;19370;48.562;9.196;2022-10-31T05:45:56;9.80;99.90
33011;DHT22;19370;48.562;9.196;2022-10-31T05:48:22;9.80;99.90
33011;DHT22;19370;48.562;9.196;2022-10-31T05:50:48;9.80;99.90
33011;DHT22;19370;48.562;9.196;2022-10-31T05:53:14;9.80;99.90
33011;DHT22;19370;48.562;9.196;2022-10-31T05:55:42;9.90;99.90
33011;DHT22;19370;48.562;9.196;2022-10-31T05:58:08;9.90;99.90
33011;DHT22;19370;48.562;9.196;2022-10-31T06:00:34;9.90;99.90
33011;DHT22;19370;48.562;9.196;2022-10-31T06:03:04;10.00;99.90
33011;DHT22;19370;48.562;9.196;2022-10-31T06:05:31;9.80;99.90
33011;DHT22;19370;48.562;9.196;2022-10-31T06:07:57;9.80;99.90
33011;DHT22;19370;48.562;9.196;2022-10-31T06:10:23;9.80;99.90
33011;DHT22;19370;48.562;9.196;2022-10-31T06:12:49;9.80;99.90
33011;DHT22;19370;48.562;9.196;2022-10-31T06:15:16;9.80;99.90
33011;DHT22;19370;48.562;9.196;2022-10-31T06:17:42;9.80;99.90
33011;DHT22;19370;48.562;9.196;2022-10-31T06:20:08;9.70;99.90
33011;DHT22;19370;48.562;9.196;2022-10-31T06:22:34;9.80;99.90
33011;DHT22;19370;48.562;9.196;2022-10-31T06:25:00;9.80;99.90
33011;DHT22;19370;48.562;9.196;2022-10-31T06:27:26;9.70;99.90
33011;DHT22;19370;48.562;9.196;2022-10-31T06:29:52;9.60;99.90
33011;DHT22;19370;48.562;9.196;2022-10-31T06:32:18;9.60;99.90
33011;DHT22;19370;48.562;9.196;2022-10-31T06:34:44;9.60;99.90
33011;DHT22;19370;48.562;9.196;2022-10-31T06:37:11;9.60;99.90
33011;DHT22;19370;48.562;9.196;2022-10-31T06:39:37;9.50;99.90
33011;DHT22;19370;48.562;9.196;2022-10-31T06:42:04;9.50;99.90
33011;DHT22;19370;48.562;9.196;2022-10-31T06:44:30;9.50;99.90
33011;DHT22;19370;48.562;9.196;2022-10-31T06:46:56;9.60;99.90
33011;DHT22;19370;48.562;9.196;2022-10-31T06:49:22;9.70;99.90
33011;DHT22;19370;48.562;9.196;2022-10-31T06:51:48;9.80;99.90
33011;DHT22;19370;48.562;9.196;2022-10-31T06:54:14;9.80;99.90
33011;DHT22;19370;48.562;9.196;2022-10-31T06:56:41;9.90;99.90
33011;DHT22;19370;48.562;9.196;2022-10-31T06:59:07;10.00;99.90
33011;DHT22;19370;48.562;9.196;2022-10-31T07:01:32;9.90;99.90
33011;DHT22;19370;48.562;9.196;2022-10-31T07:03:58;9.90;99.90
33011;DHT22;19370;48.562;9.196;2022-10-31T07:06:24;9.90;99.90
33011;DHT22;19370;48.562;9.196;2022-10-31T07:08:50;10.00;99.90
33011;DHT22;19370;48.562;9.196;2022-10-31T07:11:16;10.10;99.90
33011;DHT22;19370;48.562;9.196;2022-10-31T07:13:41;10.10;99.90
33011;DHT22;19370;48.562;9.196;2022-10-31T07:16:08;10.20;99.90
33011;DHT22;19370;48.562;9.196;2022-10-31T07:18:36;10.20;99.90
33011;DHT22;19370;48.562;9.196;2022-10-31T07:21:02;10.10;99.90
33011;DHT22;19370;48.562;9.196;2022-10-31T07:23:28;10.30;99.90
33011;DHT22;19370;48.562;9.196;2022-10-31T07:25:55;10.30;99.90
33011;DHT22;19370;48.562;9.196;2022-10-31T07:28:21;10.40;99.90
33011;DHT22;19370;48.562;9.196;2022-10-31T07:30:54;10.40;99.90
33011;DHT22;19370;48.562;9.196;2022-10-31T07:33:21;10.50;99.90
33011;DHT22;19370;48.562;9.196;2022-10-31T07:35:47;10.70;99.90
33011;DHT22;19370;48.562;9.196;2022-10-31T07:38:16;10.70;99.90
33011;DHT22;19370;48.562;9.196;2022-10-31T07:40:42;10.70;99.90
33011;DHT22;19370;48.562;9.196;2022-10-31T07:43:10;10.70;99.90
33011;DHT22;19370;48.562;9.196;2022-10-31T07:45:36;10.60;99.90
33011;DHT22;19370;48.562;9.196;2022-10-31T07:48:02;10.70;99.90
33011;DHT22;19370;48.562;9.196;2022-10-31T07:50:32;10.80;99.90
33011;DHT22;19370;48.562;9.196;2022-10-31T07:53:02;10.70;99.90
33011;DHT22;19370;48.562;9.196;2022-10-31T07:55:29;10.80;99.90
33011;DHT22;19370;48.562;9.196;2022-10-31T07:58:04;10.80;99.90
33011;DHT22;19370;48.562;9.196;2022-10-31T08:00:31;10.90;99.90
33011;DHT22;19370;48.562;9.196;2022-10-31T08:03:02;11.00;99.90
33011;DHT22;19370;48.562;9.196;2022-10-31T08:05:29;11.10;99.90
33011;DHT22;19370;48.562;9.196;2022-10-31T08:07:58;11.30;99.90
33011;DHT22;19370;48.562;9.196;2022-10-31T08:10:25;11.40;99.90
33011;DHT22;19370;48.562;9.196;2022-10-31T08:13:01;11.40;99.90
33011;DHT22;19370;48.562;9.196;2022-10-31T08:15:27;11.50;99.90
33011;DHT22;19370;48.562;9.196;2022-10-31T08:17:54;11.40;99.90
33011;DHT22;19370;48.562;9.196;2022-10-31T08:20:20;11.40;99.90
33011;DHT22;19370;48.562;9.196;2022-10-31T08:22:53;11.40;99.90
33011;DHT22;19370;48.562;9.196;2022-10-31T08:25:19;11.60;99.90
33011;DHT22;19370;48.562;9.196;2022-10-31T08:27:54;11.80;99.90
33011;DHT22;19370;48.562;9.196;2022-10-31T08:30:22;11.90;99.90
33011;DHT22;19370;48.562;9.196;2022-10-31T08:35:25;12.10;99.90
33011;DHT22;19370;48.562;9.196;2022-10-31T08:37:55;12.00;99.90
33011;DHT22;19370;48.562;9.196;2022-10-31T08:40:22;12.00;99.90
33011;DHT22;19370;48.562;9.196;2022-10-31T08:42:47;12.00;99.90
33011;DHT22;19370;48.562;9.196;2022-10-31T08:45:13;11.90;99.90
33011;DHT22;19370;48.562;9.196;2022-10-31T08:47:39;11.70;99.90
33011;DHT22;19370;48.562;9.196;2022-10-31T08:50:05;11.70;99.90
33011;DHT22;19370;48.562;9.196;2022-10-31T08:52:31;11.90;99.90
33011;DHT22;19370;48.562;9.196;2022-10-31T08:54:56;11.80;99.90
33011;DHT22;19370;48.562;9.196;2022-10-31T08:57:22;11.90;99.90
33011;DHT22;19370;48.562;9.196;2022-10-31T08:59:48;12.10;99.90
33011;DHT22;19370;48.562;9.196;2022-10-31T09:02:13;12.00;99.90
33011;DHT22;19370;48.562;9.196;2022-10-31T09:04:39;12.00;99.90
33011;DHT22;19370;48.562;9.196;2022-10-31T09:07:05;11.90;99.90
33011;DHT22;19370;48.562;9.196;2022-10-31T09:09:30;11.90;99.90
33011;DHT22;19370;48.562;9.196;2022-10-31T09:11:56;12.10;99.90
33011;DHT22;19370;48.562;9.196;2022-10-31T09:14:22;12.10;99.90
33011;DHT22;19370;48.562;9.196;2022-10-31T09:16:47;12.20;99.90
33011;DHT22;19370;48.562;9.196;2022-10-31T09:19:13;12.30;99.90
33011;DHT22;19370;48.562;9.196;2022-10-31T09:21:39;12.40;99.90
33011;DHT22;19370;48.562;9.196;2022-10-31T09:24:05;12.60;99.90
33011;DHT22;19370;48.562;9.196;2022-10-31T09:26:31;12.60;99.90
33011;DHT22;19370;48.562;9.196;2022-10-31T09:28:58;12.60;99.90
33011;DHT22;19370;48.562;9.196;2022-10-31T09:31:27;12.60;99.90
33011;DHT22;19370;48.562;9.196;2022-10-31T09:33:54;12.40;99.90
33011;DHT22;19370;48.562;9.196;2022-10-31T09:36:20;12.50;99.90
33011;DHT22;19370;48.562;9.196;2022-10-31T09:38:45;12.50;99.90
33011;DHT22;19370;48.562;9.196;2022-10-31T09:41:25;12.70;99.90
33011;DHT22;19370;48.562;9.196;2022-10-31T09:52:35;13.20;99.90
33011;DHT22;19370;48.562;9.196;2022-10-31T09:55:18;13.40;99.90
33011;DHT22;19370;48.562;9.196;2022-10-31T09:57:47;13.50;99.90
33011;DHT22;19370;48.562;9.196;2022-10-31T10:00:18;13.60;99.90
33011;DHT22;19370;48.562;9.196;2022-10-31T10:03:01;13.70;99.90
33011;DHT22;19370;48.562;9.196;2022-10-31T10:05:37;13.90;99.90
33011;DHT22;19370;48.562;9.196;2022-10-31T10:08:12;14.00;99.90
33011;DHT22;19370;48.562;9.196;2022-10-31T10:19:22;14.10;99.90
33011;DHT22;19370;48.562;9.196;2022-10-31T10:30:20;14.60;99.90
33011;DHT22;19370;48.562;9.196;2022-10-31T10:32:51;14.70;99.90
33011;DHT22;19370;48.562;9.196;2022-10-31T10:37:46;14.70;99.90
33011;DHT22;19370;48.562;9.196;2022-10-31T10:40:24;14.70;99.90
33011;DHT22;19370;48.562;9.196;2022-10-31T10:49:25;15.00;99.90
33011;DHT22;19370;48.562;9.196;2022-10-31T10:52:12;15.10;99.90
33011;DHT22;19370;48.562;9.196;2022-10-31T10:57:47;15.70;99.90
33011;DHT22;19370;48.562;9.196;2022-10-31T11:00:29;15.90;99.90
33011;DHT22;19370;48.562;9.196;2022-10-31T11:02:55;16.60;99.90
33011;DHT22;19370;48.562;9.196;2022-10-31T11:05:30;16.80;99.90
33011;DHT22;19370;48.562;9.196;2022-10-31T11:07:58;17.30;99.90
33011;DHT22;19370;48.562;9.196;2022-10-31T11:10:24;17.80;99.90
33011;DHT22;19370;48.562;9.196;2022-10-31T11:13:16;18.10;99.90
33011;DHT22;19370;48.562;9.196;2022-10-31T11:16:31;18.20;99.90
33011;DHT22;19370;48.562;9.196;2022-10-31T11:19:07;18.10;99.90
33011;DHT22;19370;48.562;9.196;2022-10-31T11:21:34;18.10;99.90
33011;DHT22;19370;48.562;9.196;2022-10-31T11:26:36;18.50;99.90
33011;DHT22;19370;48.562;9.196;2022-10-31T11:29:13;19.00;99.90
33011;DHT22;19370;48.562;9.196;2022-10-31T11:31:40;19.10;99.90
33011;DHT22;19370;48.562;9.196;2022-10-31T11:34:16;19.50;99.90
33011;DHT22;19370;48.562;9.196;2022-10-31T11:36:47;19.50;99.90
33011;DHT22;19370;48.562;9.196;2022-10-31T11:39:24;19.50;99.90
33011;DHT22;19370;48.562;9.196;2022-10-31T11:41:54;19.00;99.90
33011;DHT22;19370;48.562;9.196;2022-10-31T11:44:26;19.20;99.90
33011;DHT22;19370;48.562;9.196;2022-10-31T11:46:59;19.40;99.90
33011;DHT22;19370;48.562;9.196;2022-10-31T11:49:40;19.50;99.90
33011;DHT22;19370;48.562;9.196;2022-10-31T11:54:46;18.70;99.90
33011;DHT22;19370;48.562;9.196;2022-10-31T11:57:42;18.60;99.90
33011;DHT22;19370;48.562;9.196;2022-10-31T12:00:26;18.60;99.90
33011;DHT22;19370;48.562;9.196;2022-10-31T12:05:31;18.50;99.90
33011;DHT22;19370;48.562;9.196;2022-10-31T12:07:59;18.40;99.90
33011;DHT22;19370;48.562;9.196;2022-10-31T12:10:35;18.30;99.90
33011;DHT22;19370;48.562;9.196;2022-10-31T12:15:43;18.10;99.90
33011;DHT22;19370;48.562;9.196;2022-10-31T12:26:14;17.40;99.90
33011;DHT22;19370;48.562;9.196;2022-10-31T12:43:19;16.70;99.90
33011;DHT22;19370;48.562;9.196;2022-10-31T12:48:32;16.40;99.90
33011;DHT22;19370;48.562;9.196;2022-10-31T12:56:41;16.40;99.90
33011;DHT22;19370;48.562;9.196;2022-10-31T12:59:35;16.30;99.90
33011;DHT22;19370;48.562;9.196;2022-10-31T13:02:22;16.30;99.90
33011;DHT22;19370;48.562;9.196;2022-10-31T13:04:52;16.30;99.90
33011;DHT22;19370;48.562;9.196;2022-10-31T13:10:01;16.40;99.90
33011;DHT22;19370;48.562;9.196;2022-10-31T13:12:30;16.40;99.90
33011;DHT22;19370;48.562;9.196;2022-10-31T13:17:46;16.30;99.90
33011;DHT22;19370;48.562;9.196;2022-10-31T13:22:45;16.50;99.90
33011;DHT22;19370;48.562;9.196;2022-10-31T13:25:27;16.60;99.90
33011;DHT22;19370;48.562;9.196;2022-10-31T13:28:01;16.70;99.90
33011;DHT22;19370;48.562;9.196;2022-10-31T13:30:32;16.90;99.90
33011;DHT22;19370;48.562;9.196;2022-10-31T13:33:14;17.00;99.90
33011;DHT22;19370;48.562;9.196;2022-10-31T13:36:06;17.10;99.90
33011;DHT22;19370;48.562;9.196;2022-10-31T13:39:01;17.20;99.90
33011;DHT22;19370;48.562;9.196;2022-10-31T13:41:56;16.90;99.90
33011;DHT22;19370;48.562;9.196;2022-10-31T13:44:27;17.10;99.90
33011;DHT22;19370;48.562;9.196;2022-10-31T13:46:55;17.30;99.90
33011;DHT22;19370;48.562;9.196;2022-10-31T13:49:39;17.40;99.90
33011;DHT22;19370;48.562;9.196;2022-10-31T13:57:19;17.60;99.90
33011;DHT22;19370;48.562;9.196;2022-10-31T13:59:51;17.70;99.90
33011;DHT22;19370;48.562;9.196;2022-10-31T14:02:43;17.60;99.90
33011;DHT22;19370;48.562;9.196;2022-10-31T14:05:24;17.70;99.90
33011;DHT22;19370;48.562;9.196;2022-10-31T14:07:55;17.80;99.90
33011;DHT22;19370;48.562;9.196;2022-10-31T14:10:26;18.50;99.90
33011;DHT22;19370;48.562;9.196;2022-10-31T14:15:43;20.70;99.90
33011;DHT22;19370;48.562;9.196;2022-10-31T14:18:39;22.40;99.90
33011;DHT22;19370;48.562;9.196;2022-10-31T14:23:50;23.70;98.40
33011;DHT22;19370;48.562;9.196;2022-10-31T14:28:41;24.20;96.50
33011;DHT22;19370;48.562;9.196;2022-10-31T14:31:38;24.40;94.80
33011;DHT22;19370;48.562;9.196;2022-10-31T14:48:20;23.20;93.50
33011;DHT22;19370;48.562;9.196;2022-10-31T14:50:52;23.20;94.60
33011;DHT22;19370;48.562;9.196;2022-10-31T14:53:32;23.50;93.50
33011;DHT22;19370;48.562;9.196;2022-10-31T14:55:58;24.20;92.50
33011;DHT22;19370;48.562;9.196;2022-10-31T15:00:56;24.70;91.50
33011;DHT22;19370;48.562;9.196;2022-10-31T15:03:35;24.70;90.20
33011;DHT22;19370;48.562;9.196;2022-10-31T15:06:14;24.10;92.80
33011;DHT22;19370;48.562;9.196;2022-10-31T15:08:49;23.20;92.80
33011;DHT22;19370;48.562;9.196;2022-10-31T15:11:18;21.90;94.00
33011;DHT22;19370;48.562;9.196;2022-10-31T15:13:51;20.50;97.90
33011;DHT22;19370;48.562;9.196;2022-10-31T15:16:33;19.40;99.90
33011;DHT22;19370;48.562;9.196;2022-10-31T15:19:03;18.70;99.90
33011;DHT22;19370;48.562;9.196;2022-10-31T15:21:30;18.10;99.90
33011;DHT22;19370;48.562;9.196;2022-10-31T15:23:59;17.60;99.90
33011;DHT22;19370;48.562;9.196;2022-10-31T15:26:52;17.30;99.90
33011;DHT22;19370;48.562;9.196;2022-10-31T15:29:21;16.90;99.90
33011;DHT22;19370;48.562;9.196;2022-10-31T15:31:51;16.50;99.90
33011;DHT22;19370;48.562;9.196;2022-10-31T15:34:38;16.30;99.90
33011;DHT22;19370;48.562;9.196;2022-10-31T15:37:09;15.90;99.90
33011;DHT22;19370;48.562;9.196;2022-10-31T15:39:36;15.70;99.90
33011;DHT22;19370;48.562;9.196;2022-10-31T15:42:02;15.70;99.90
33011;DHT22;19370;48.562;9.196;2022-10-31T15:44:31;15.50;99.90
33011;DHT22;19370;48.562;9.196;2022-10-31T15:47:00;15.40;99.90
33011;DHT22;19370;48.562;9.196;2022-10-31T15:52:11;15.10;99.90
33011;DHT22;19370;48.562;9.196;2022-10-31T15:54:48;15.00;99.90
33011;DHT22;19370;48.562;9.196;2022-10-31T15:57:15;14.90;99.90
33011;DHT22;19370;48.562;9.196;2022-10-31T15:59:46;14.80;99.90
33011;DHT22;19370;48.562;9.196;2022-10-31T16:02:14;14.70;99.90
33011;DHT22;19370;48.562;9.196;2022-10-31T16:05:01;14.60;99.90
33011;DHT22;19370;48.562;9.196;2022-10-31T16:07:28;14.60;99.90
33011;DHT22;19370;48.562;9.196;2022-10-31T16:09:57;14.50;99.90
33011;DHT22;19370;48.562;9.196;2022-10-31T16:12:25;14.40;99.90
33011;DHT22;19370;48.562;9.196;2022-10-31T16:14:54;14.30;99.90
33011;DHT22;19370;48.562;9.196;2022-10-31T16:17:26;14.30;99.90
33011;DHT22;19370;48.562;9.196;2022-10-31T16:19:56;14.30;99.90
33011;DHT22;19370;48.562;9.196;2022-10-31T16:22:26;14.20;99.90
33011;DHT22;19370;48.562;9.196;2022-10-31T16:25:15;14.10;99.90
33011;DHT22;19370;48.562;9.196;2022-10-31T16:27:49;14.00;99.90
33011;DHT22;19370;48.562;9.196;2022-10-31T16:30:35;14.00;99.90
33011;DHT22;19370;48.562;9.196;2022-10-31T16:33:19;14.00;99.90
33011;DHT22;19370;48.562;9.196;2022-10-31T16:35:46;13.90;99.90
33011;DHT22;19370;48.562;9.196;2022-10-31T16:38:12;13.80;99.90
33011;DHT22;19370;48.562;9.196;2022-10-31T16:40:39;13.70;99.90
33011;DHT22;19370;48.562;9.196;2022-10-31T16:43:10;13.70;99.90
33011;DHT22;19370;48.562;9.196;2022-10-31T16:45:37;13.70;99.90
33011;DHT22;19370;48.562;9.196;2022-10-31T16:48:14;13.60;99.90
33011;DHT22;19370;48.562;9.196;2022-10-31T16:50:47;13.50;99.90
33011;DHT22;19370;48.562;9.196;2022-10-31T16:53:14;13.50;99.90
33011;DHT22;19370;48.562;9.196;2022-10-31T16:55:55;13.50;99.90
33011;DHT22;19370;48.562;9.196;2022-10-31T16:58:30;13.40;99.90
33011;DHT22;19370;48.562;9.196;2022-10-31T17:01:01;13.40;99.90
33011;DHT22;19370;48.562;9.196;2022-10-31T17:03:27;13.30;99.90
33011;DHT22;19370;48.562;9.196;2022-10-31T17:05:53;13.30;99.90
33011;DHT22;19370;48.562;9.196;2022-10-31T17:08:21;13.20;99.90
33011;DHT22;19370;48.562;9.196;2022-10-31T17:10:57;13.20;99.90
33011;DHT22;19370;48.562;9.196;2022-10-31T17:13:25;13.10;99.90
33011;DHT22;19370;48.562;9.196;2022-10-31T17:15:55;13.10;99.90
33011;DHT22;19370;48.562;9.196;2022-10-31T17:18:24;13.10;99.90
33011;DHT22;19370;48.562;9.196;2022-10-31T17:20:50;13.10;99.90
33011;DHT22;19370;48.562;9.196;2022-10-31T17:23:20;12.90;99.90
33011;DHT22;19370;48.562;9.196;2022-10-31T17:25:46;12.90;99.90
33011;DHT22;19370;48.562;9.196;2022-10-31T17:28:13;12.90;99.90
33011;DHT22;19370;48.562;9.196;2022-10-31T17:30:42;12.90;99.90
33011;DHT22;19370;48.562;9.196;2022-10-31T17:33:15;12.80;99.90
33011;DHT22;19370;48.562;9.196;2022-10-31T17:35:42;12.80;99.90
33011;DHT22;19370;48.562;9.196;2022-10-31T17:38:10;12.70;99.90
33011;DHT22;19370;48.562;9.196;2022-10-31T17:40:42;12.70;99.90
33011;DHT22;19370;48.562;9.196;2022-10-31T17:43:08;12.70;99.90
33011;DHT22;19370;48.562;9.196;2022-10-31T17:45:37;12.70;99.90
33011;DHT22;19370;48.562;9.196;2022-10-31T17:48:04;12.70;99.90
33011;DHT22;19370;48.562;9.196;2022-10-31T17:50:29;12.70;99.90
33011;DHT22;19370;48.562;9.196;2022-10-31T17:52:57;12.70;99.90
33011;DHT22;19370;48.562;9.196;2022-10-31T17:55:23;12.60;99.90
33011;DHT22;19370;48.562;9.196;2022-10-31T17:57:49;12.60;99.90
33011;DHT22;19370;48.562;9.196;2022-10-31T18:00:17;12.60;99.90
33011;DHT22;19370;48.562;9.196;2022-10-31T18:02:45;12.60;99.90
33011;DHT22;19370;48.562;9.196;2022-10-31T18:05:11;12.60;99.90
33011;DHT22;19370;48.562;9.196;2022-10-31T18:07:37;12.50;99.90
33011;DHT22;19370;48.562;9.196;2022-10-31T18:10:03;12.60;99.90
33011;DHT22;19370;48.562;9.196;2022-10-31T18:12:30;12.50;99.90
33011;DHT22;19370;48.562;9.196;2022-10-31T18:14:59;12.50;99.90
33011;DHT22;19370;48.562;9.196;2022-10-31T18:17:25;12.60;99.90
33011;DHT22;19370;48.562;9.196;2022-10-31T18:19:54;12.50;99.90